sensor_id;sensor_type;location;lat;lon;timestamp;pressure;altitude;pressure_sealevel;temperature;humidity
3780;BME280;1905;52.482;9.802;2022-10-16T00:00:57;100586.41;;;14.53;83.95
3780;BME280;1905;52.482;9.802;2022-10-16T00:03:24;100575.97;;;14.50;84.33
3780;BME280;1905;52.482;9.802;2022-10-16T00:05:58;100579.00;;;14.44;84.47
3780;BME280;1905;52.482;9.802;2022-10-16T00:08:26;100588.97;;;14.40;84.61
3780;BME280;1905;52.482;9.802;2022-10-16T00:11:00;100591.81;;;14.37;84.60
3780;BME280;1905;52.482;9.802;2022-10-16T00:13:29;100586.56;;;14.36;84.11
3780;BME280;1905;52.482;9.802;2022-10-16T00:15:57;100596.44;;;14.34;83.99
3780;BME280;1905;52.482;9.802;2022-10-16T00:18:26;100599.38;;;14.29;84.16
3780;BME280;1905;52.482;9.802;2022-10-16T00:20:54;100592.63;;;14.23;84.29
3780;BME280;1905;52.482;9.802;2022-10-16T00:23:22;100597.25;;;14.20;84.61
3780;BME280;1905;52.482;9.802;2022-10-16T00:25:56;100594.78;;;14.17;84.34
3780;BME280;1905;52.482;9.802;2022-10-16T00:28:26;100596.50;;;14.18;84.15
3780;BME280;1905;52.482;9.802;2022-10-16T00:30:54;100600.25;;;14.14;84.61
3780;BME280;1905;52.482;9.802;2022-10-16T00:33:22;100594.94;;;14.14;84.09
3780;BME280;1905;52.482;9.802;2022-10-16T00:35:50;100593.44;;;14.10;84.25
3780;BME280;1905;52.482;9.802;2022-10-16T00:38:18;100600.63;;;14.08;84.50
3780;BME280;1905;52.482;9.802;2022-10-16T00:40:45;100612.22;;;14.07;84.23
3780;BME280;1905;52.482;9.802;2022-10-16T00:45:58;100611.81;;;13.99;84.20
3780;BME280;1905;52.482;9.802;2022-10-16T00:48:29;100610.09;;;13.98;84.31
3780;BME280;1905;52.482;9.802;2022-10-16T00:50:58;100615.56;;;13.95;84.27
3780;BME280;1905;52.482;9.802;2022-10-16T00:53:27;100617.47;;;13.93;84.26
3780;BME280;1905;52.482;9.802;2022-10-16T00:55:55;100615.75;;;13.92;84.47
3780;BME280;1905;52.482;9.802;2022-10-16T00:58:23;100615.94;;;13.89;84.34
3780;BME280;1905;52.482;9.802;2022-10-16T01:00:51;100622.19;;;13.88;84.08
3780;BME280;1905;52.482;9.802;2022-10-16T01:03:25;100628.44;;;13.87;83.95
3780;BME280;1905;52.482;9.802;2022-10-16T01:06:03;100619.81;;;13.83;84.25
3780;BME280;1905;52.482;9.802;2022-10-16T01:08:39;100625.19;;;13.82;84.43
3780;BME280;1905;52.482;9.802;2022-10-16T01:11:15;100620.81;;;13.81;84.16
3780;BME280;1905;52.482;9.802;2022-10-16T01:13:48;100624.44;;;13.80;84.58
3780;BME280;1905;52.482;9.802;2022-10-16T01:16:26;100625.38;;;13.79;84.57
3780;BME280;1905;52.482;9.802;2022-10-16T01:19:02;100621.97;;;13.77;84.45
3780;BME280;1905;52.482;9.802;2022-10-16T01:21:35;100614.28;;;13.72;84.18
3780;BME280;1905;52.482;9.802;2022-10-16T01:24:11;100622.22;;;13.72;84.15
3780;BME280;1905;52.482;9.802;2022-10-16T01:29:26;100631.47;;;13.65;84.25
3780;BME280;1905;52.482;9.802;2022-10-16T01:32:00;100636.88;;;13.63;84.42
3780;BME280;1905;52.482;9.802;2022-10-16T01:34:32;100635.34;;;13.59;84.46
3780;BME280;1905;52.482;9.802;2022-10-16T01:37:04;100636.19;;;13.60;84.64
3780;BME280;1905;52.482;9.802;2022-10-16T01:39:38;100632.84;;;13.56;84.75
3780;BME280;1905;52.482;9.802;2022-10-16T01:42:09;100638.16;;;13.56;84.35
3780;BME280;1905;52.482;9.802;2022-10-16T01:44:41;100642.69;;;13.54;84.50
3780;BME280;1905;52.482;9.802;2022-10-16T01:47:10;100641.78;;;13.55;84.02
3780;BME280;1905;52.482;9.802;2022-10-16T01:49:40;100644.59;;;13.52;84.55
3780;BME280;1905;52.482;9.802;2022-10-16T01:52:13;100646.47;;;13.50;84.47
3780;BME280;1905;52.482;9.802;2022-10-16T01:54:46;100651.78;;;13.50;84.56
3780;BME280;1905;52.482;9.802;2022-10-16T01:57:15;100642.22;;;13.48;84.51
3780;BME280;1905;52.482;9.802;2022-10-16T01:59:47;100639.78;;;13.43;84.51
3780;BME280;1905;52.482;9.802;2022-10-16T02:02:18;100639.78;;;13.43;84.54
3780;BME280;1905;52.482;9.802;2022-10-16T02:04:49;100641.69;;;13.41;84.35
3780;BME280;1905;52.482;9.802;2022-10-16T02:07:19;100639.97;;;13.40;84.68
3780;BME280;1905;52.482;9.802;2022-10-16T02:09:47;100643.56;;;13.39;84.45
3780;BME280;1905;52.482;9.802;2022-10-16T02:12:19;100648.09;;;13.37;84.89
3780;BME280;1905;52.482;9.802;2022-10-16T02:14:52;100649.75;;;13.40;84.48
3780;BME280;1905;52.482;9.802;2022-10-16T02:17:20;100650.75;;;13.37;84.27
3780;BME280;1905;52.482;9.802;2022-10-16T02:19:50;100651.88;;;13.33;84.29
3780;BME280;1905;52.482;9.802;2022-10-16T02:22:22;100654.69;;;13.30;84.81
3780;BME280;1905;52.482;9.802;2022-10-16T02:24:57;100655.63;;;13.29;84.46
3780;BME280;1905;52.482;9.802;2022-10-16T02:27:27;100658.25;;;13.29;84.65
3780;BME280;1905;52.482;9.802;2022-10-16T02:30:06;100666.31;;;13.28;84.14
3780;BME280;1905;52.482;9.802;2022-10-16T02:32:37;100669.22;;;13.23;84.49
3780;BME280;1905;52.482;9.802;2022-10-16T02:35:08;100671.03;;;13.23;84.49
3780;BME280;1905;52.482;9.802;2022-10-16T02:37:38;100665.78;;;13.21;84.52
3780;BME280;1905;52.482;9.802;2022-10-16T02:40:07;100670.25;;;13.21;84.62
3780;BME280;1905;52.482;9.802;2022-10-16T02:42:37;100669.56;;;13.17;84.14
3780;BME280;1905;52.482;9.802;2022-10-16T02:45:09;100666.97;;;13.16;84.52
3780;BME280;1905;52.482;9.802;2022-10-16T02:47:37;100656.47;;;13.14;84.58
3780;BME280;1905;52.482;9.802;2022-10-16T02:50:05;100663.72;;;13.10;84.79
3780;BME280;1905;52.482;9.802;2022-10-16T02:52:33;100657.56;;;13.10;84.39
3780;BME280;1905;52.482;9.802;2022-10-16T02:55:01;100650.56;;;13.09;84.80
3780;BME280;1905;52.482;9.802;2022-10-16T02:57:28;100661.16;;;13.09;84.26
3780;BME280;1905;52.482;9.802;2022-10-16T02:59:56;100667.34;;;13.09;84.40
3780;BME280;1905;52.482;9.802;2022-10-16T03:02:25;100667.53;;;13.05;84.88
3780;BME280;1905;52.482;9.802;2022-10-16T03:04:53;100672.94;;;13.03;84.28
3780;BME280;1905;52.482;9.802;2022-10-16T03:07:20;100661.63;;;13.00;84.66
3780;BME280;1905;52.482;9.802;2022-10-16T03:09:48;100667.09;;;12.97;84.50
3780;BME280;1905;52.482;9.802;2022-10-16T03:12:16;100662.81;;;12.94;84.59
3780;BME280;1905;52.482;9.802;2022-10-16T03:14:43;100667.25;;;12.94;84.57
3780;BME280;1905;52.482;9.802;2022-10-16T03:17:11;100660.25;;;12.93;84.69
3780;BME280;1905;52.482;9.802;2022-10-16T03:19:40;100671.00;;;12.90;84.52
3780;BME280;1905;52.482;9.802;2022-10-16T03:22:08;100675.56;;;12.88;84.50
3780;BME280;1905;52.482;9.802;2022-10-16T03:24:36;100677.34;;;12.87;84.72
3780;BME280;1905;52.482;9.802;2022-10-16T03:27:03;100681.94;;;12.84;84.40
3780;BME280;1905;52.482;9.802;2022-10-16T03:29:31;100672.19;;;12.84;84.57
3780;BME280;1905;52.482;9.802;2022-10-16T03:31:59;100673.97;;;12.84;84.66
3780;BME280;1905;52.482;9.802;2022-10-16T03:34:27;100675.78;;;12.83;84.54
3780;BME280;1905;52.482;9.802;2022-10-16T03:36:56;100671.50;;;12.81;84.56
3780;BME280;1905;52.482;9.802;2022-10-16T03:39:24;100676.94;;;12.78;84.68
3780;BME280;1905;52.482;9.802;2022-10-16T03:41:51;100668.22;;;12.76;84.81
3780;BME280;1905;52.482;9.802;2022-10-16T03:44:19;100671.81;;;12.75;84.83
3780;BME280;1905;52.482;9.802;2022-10-16T03:46:47;100672.78;;;12.74;84.54
3780;BME280;1905;52.482;9.802;2022-10-16T03:49:14;100677.47;;;12.69;84.76
3780;BME280;1905;52.482;9.802;2022-10-16T03:51:42;100671.19;;;12.70;84.81
3780;BME280;1905;52.482;9.802;2022-10-16T03:54:11;100671.13;;;12.71;84.54
3780;BME280;1905;52.482;9.802;2022-10-16T03:56:38;100671.19;;;12.70;84.34
3780;BME280;1905;52.482;9.802;2022-10-16T03:59:06;100673.09;;;12.68;84.67
3780;BME280;1905;52.482;9.802;2022-10-16T04:01:34;100663.41;;;12.67;84.60
3780;BME280;1905;52.482;9.802;2022-10-16T04:04:01;100661.88;;;12.63;84.77
3780;BME280;1905;52.482;9.802;2022-10-16T04:06:29;100665.38;;;12.63;84.94
3780;BME280;1905;52.482;9.802;2022-10-16T04:08:56;100666.41;;;12.61;84.64
3780;BME280;1905;52.482;9.802;2022-10-16T04:11:25;100679.81;;;12.58;84.60
3780;BME280;1905;52.482;9.802;2022-10-16T04:13:53;100686.94;;;12.55;84.71
3780;BME280;1905;52.482;9.802;2022-10-16T04:16:21;100686.94;;;12.55;84.79
3780;BME280;1905;52.482;9.802;2022-10-16T04:18:48;100698.50;;;12.54;84.73
3780;BME280;1905;52.482;9.802;2022-10-16T04:21:16;100696.78;;;12.53;84.79
3780;BME280;1905;52.482;9.802;2022-10-16T04:23:44;100701.31;;;12.51;84.56
3780;BME280;1905;52.482;9.802;2022-10-16T04:26:11;100697.88;;;12.49;84.52
3780;BME280;1905;52.482;9.802;2022-10-16T04:28:40;100698.81;;;12.48;84.79
3780;BME280;1905;52.482;9.802;2022-10-16T04:31:08;100686.69;;;12.44;84.95
3780;BME280;1905;52.482;9.802;2022-10-16T04:33:36;100692.91;;;12.43;84.79
3780;BME280;1905;52.482;9.802;2022-10-16T04:36:04;100697.44;;;12.41;84.91
3780;BME280;1905;52.482;9.802;2022-10-16T04:38:31;100707.16;;;12.41;84.98
3780;BME280;1905;52.482;9.802;2022-10-16T04:40:59;100707.22;;;12.39;84.66
3780;BME280;1905;52.482;9.802;2022-10-16T04:43:27;100709.09;;;12.37;84.85
3780;BME280;1905;52.482;9.802;2022-10-16T04:45:56;100703.78;;;12.37;84.90
3780;BME280;1905;52.482;9.802;2022-10-16T04:48:23;100699.50;;;12.35;84.75
3780;BME280;1905;52.482;9.802;2022-10-16T04:50:51;100699.66;;;12.32;84.68
3780;BME280;1905;52.482;9.802;2022-10-16T04:53:20;100697.97;;;12.31;84.98
3780;BME280;1905;52.482;9.802;2022-10-16T04:55:48;100699.00;;;12.28;84.63
3780;BME280;1905;52.482;9.802;2022-10-16T04:58:16;100705.25;;;12.26;85.01
3780;BME280;1905;52.482;9.802;2022-10-16T05:00:44;100715.03;;;12.25;84.76
3780;BME280;1905;52.482;9.802;2022-10-16T05:03:14;100717.88;;;12.21;85.21
3780;BME280;1905;52.482;9.802;2022-10-16T05:05:43;100724.97;;;12.20;84.90
3780;BME280;1905;52.482;9.802;2022-10-16T05:08:11;100725.97;;;12.18;84.95
3780;BME280;1905;52.482;9.802;2022-10-16T05:10:40;100721.63;;;12.17;85.38
3780;BME280;1905;52.482;9.802;2022-10-16T05:13:09;100726.94;;;12.17;85.09
3780;BME280;1905;52.482;9.802;2022-10-16T05:15:37;100728.81;;;12.15;85.52
3780;BME280;1905;52.482;9.802;2022-10-16T05:18:04;100722.78;;;12.11;85.27
3780;BME280;1905;52.482;9.802;2022-10-16T05:20:33;100723.66;;;12.12;85.40
3780;BME280;1905;52.482;9.802;2022-10-16T05:23:01;100730.72;;;12.11;85.17
3780;BME280;1905;52.482;9.802;2022-10-16T05:25:29;100726.34;;;12.10;85.31
3780;BME280;1905;52.482;9.802;2022-10-16T05:27:56;100733.38;;;12.11;85.20
3780;BME280;1905;52.482;9.802;2022-10-16T05:30:24;100736.94;;;12.10;85.22
3780;BME280;1905;52.482;9.802;2022-10-16T05:32:52;100740.47;;;12.11;85.04
3780;BME280;1905;52.482;9.802;2022-10-16T05:35:20;100751.13;;;12.09;85.30
3780;BME280;1905;52.482;9.802;2022-10-16T05:37:49;100756.44;;;12.09;85.12
3780;BME280;1905;52.482;9.802;2022-10-16T05:40:17;100753.78;;;12.09;84.92
3780;BME280;1905;52.482;9.802;2022-10-16T05:42:45;100748.41;;;12.11;85.17
3780;BME280;1905;52.482;9.802;2022-10-16T05:45:12;100749.13;;;12.14;85.15
3780;BME280;1905;52.482;9.802;2022-10-16T05:47:40;100740.38;;;12.12;84.78
3780;BME280;1905;52.482;9.802;2022-10-16T05:50:08;100742.09;;;12.13;85.01
3780;BME280;1905;52.482;9.802;2022-10-16T05:52:36;100731.50;;;12.13;84.77
3780;BME280;1905;52.482;9.802;2022-10-16T05:55:05;100742.97;;;12.14;84.65
3780;BME280;1905;52.482;9.802;2022-10-16T05:57:33;100740.38;;;12.12;84.77
3780;BME280;1905;52.482;9.802;2022-10-16T06:00:01;100744.75;;;12.13;84.83
3780;BME280;1905;52.482;9.802;2022-10-16T06:02:38;100748.41;;;12.11;84.83
3780;BME280;1905;52.482;9.802;2022-10-16T06:05:06;100758.13;;;12.10;85.14
3780;BME280;1905;52.482;9.802;2022-10-16T06:07:34;100754.56;;;12.11;84.82
3780;BME280;1905;52.482;9.802;2022-10-16T06:10:05;100751.13;;;12.09;85.50
3780;BME280;1905;52.482;9.802;2022-10-16T06:12:33;100755.41;;;12.12;85.46
3780;BME280;1905;52.482;9.802;2022-10-16T06:15:01;100762.41;;;12.13;85.30
3780;BME280;1905;52.482;9.802;2022-10-16T06:17:28;100761.53;;;12.12;85.63
3780;BME280;1905;52.482;9.802;2022-10-16T06:19:56;100754.41;;;12.14;86.54
3780;BME280;1905;52.482;9.802;2022-10-16T06:22:24;100765.78;;;12.16;85.35
3780;BME280;1905;52.482;9.802;2022-10-16T06:24:52;100768.28;;;12.19;87.17
3780;BME280;1905;52.482;9.802;2022-10-16T06:27:21;100769.13;;;12.20;85.73
3780;BME280;1905;52.482;9.802;2022-10-16T06:29:49;100785.03;;;12.20;86.99
3780;BME280;1905;52.482;9.802;2022-10-16T06:32:16;100788.34;;;12.23;87.61
3780;BME280;1905;52.482;9.802;2022-10-16T06:34:44;100787.28;;;12.27;88.23
3780;BME280;1905;52.482;9.802;2022-10-16T06:37:12;100792.34;;;12.32;89.41
3780;BME280;1905;52.482;9.802;2022-10-16T06:39:40;100786.84;;;12.36;89.74
3780;BME280;1905;52.482;9.802;2022-10-16T06:42:07;100788.41;;;12.40;89.09
3780;BME280;1905;52.482;9.802;2022-10-16T06:44:37;100789.97;;;12.44;89.48
3780;BME280;1905;52.482;9.802;2022-10-16T06:47:04;100786.22;;;12.48;87.46
3780;BME280;1905;52.482;9.802;2022-10-16T06:49:32;100798.56;;;12.49;87.57
3780;BME280;1905;52.482;9.802;2022-10-16T06:52:00;100798.41;;;12.52;86.98
3780;BME280;1905;52.482;9.802;2022-10-16T06:54:28;100808.81;;;12.55;87.98
3780;BME280;1905;52.482;9.802;2022-10-16T06:57:05;100815.69;;;12.60;88.34
3780;BME280;1905;52.482;9.802;2022-10-16T06:59:33;100803.84;;;12.67;90.67
3780;BME280;1905;52.482;9.802;2022-10-16T07:02:02;100816.78;;;12.73;91.09
3780;BME280;1905;52.482;9.802;2022-10-16T07:04:30;100818.22;;;12.80;91.31
3780;BME280;1905;52.482;9.802;2022-10-16T07:07:00;100810.88;;;12.85;91.69
3780;BME280;1905;52.482;9.802;2022-10-16T07:09:32;100815.78;;;12.92;91.96
3780;BME280;1905;52.482;9.802;2022-10-16T07:12:00;100814.69;;;12.96;91.62
3780;BME280;1905;52.482;9.802;2022-10-16T07:14:28;100829.25;;;13.05;92.10
3780;BME280;1905;52.482;9.802;2022-10-16T07:16:56;100820.25;;;13.09;92.58
3780;BME280;1905;52.482;9.802;2022-10-16T07:19:25;100827.25;;;13.10;91.89
3780;BME280;1905;52.482;9.802;2022-10-16T07:21:59;100830.38;;;13.18;92.02
3780;BME280;1905;52.482;9.802;2022-10-16T07:24:26;100836.06;;;13.28;92.29
3780;BME280;1905;52.482;9.802;2022-10-16T07:26:54;100844.66;;;13.33;93.05
3780;BME280;1905;52.482;9.802;2022-10-16T07:29:22;100847.91;;;13.38;92.00
3780;BME280;1905;52.482;9.802;2022-10-16T07:31:50;100851.44;;;13.38;90.80
3780;BME280;1905;52.482;9.802;2022-10-16T07:34:18;100854.63;;;13.45;92.56
3780;BME280;1905;52.482;9.802;2022-10-16T07:36:49;100850.00;;;13.48;92.47
3780;BME280;1905;52.482;9.802;2022-10-16T07:39:18;100863.09;;;13.51;89.66
3780;BME280;1905;52.482;9.802;2022-10-16T07:41:46;100862.53;;;13.62;92.10
3780;BME280;1905;52.482;9.802;2022-10-16T07:44:15;100868.22;;;13.71;92.08
3780;BME280;1905;52.482;9.802;2022-10-16T07:46:43;100873.22;;;13.78;90.60
3780;BME280;1905;52.482;9.802;2022-10-16T07:49:10;100873.72;;;13.84;91.86
3780;BME280;1905;52.482;9.802;2022-10-16T07:51:38;100883.00;;;13.93;91.85
3780;BME280;1905;52.482;9.802;2022-10-16T07:54:07;100884.19;;;14.03;91.76
3780;BME280;1905;52.482;9.802;2022-10-16T07:56:36;100895.41;;;14.08;91.02
3780;BME280;1905;52.482;9.802;2022-10-16T07:59:09;100896.88;;;14.13;91.17
3780;BME280;1905;52.482;9.802;2022-10-16T08:01:37;100903.00;;;14.15;90.14
3780;BME280;1905;52.482;9.802;2022-10-16T08:04:05;100897.25;;;14.23;90.71
3780;BME280;1905;52.482;9.802;2022-10-16T08:06:35;100891.47;;;14.32;90.66
3780;BME280;1905;52.482;9.802;2022-10-16T08:09:04;100900.03;;;14.37;90.23
3780;BME280;1905;52.482;9.802;2022-10-16T08:11:33;100900.47;;;14.45;89.86
3780;BME280;1905;52.482;9.802;2022-10-16T08:14:01;100908.06;;;14.51;89.91
3780;BME280;1905;52.482;9.802;2022-10-16T08:16:29;100906.78;;;14.58;89.15
3780;BME280;1905;52.482;9.802;2022-10-16T08:18:57;100911.94;;;14.61;89.22
3780;BME280;1905;52.482;9.802;2022-10-16T08:21:24;100919.75;;;14.64;89.09
3780;BME280;1905;52.482;9.802;2022-10-16T08:23:53;100915.78;;;14.71;88.02
3780;BME280;1905;52.482;9.802;2022-10-16T08:26:25;100920.94;;;14.74;88.94
3780;BME280;1905;52.482;9.802;2022-10-16T08:28:55;100920.94;;;14.74;87.92
3780;BME280;1905;52.482;9.802;2022-10-16T08:31:23;100917.34;;;14.75;88.03
3780;BME280;1905;52.482;9.802;2022-10-16T08:33:51;100924.34;;;14.76;87.76
3780;BME280;1905;52.482;9.802;2022-10-16T08:36:19;100925.97;;;14.79;88.48
3780;BME280;1905;52.482;9.802;2022-10-16T08:38:48;100932.56;;;14.87;87.41
3780;BME280;1905;52.482;9.802;2022-10-16T08:44:56;100940.81;;;14.99;87.27
3780;BME280;1905;52.482;9.802;2022-10-16T08:47:39;100931.09;;;14.98;87.18
3780;BME280;1905;52.482;9.802;2022-10-16T08:50:22;100941.66;;;14.99;87.04
3780;BME280;1905;52.482;9.802;2022-10-16T08:52:51;100943.34;;;15.00;86.95
3780;BME280;1905;52.482;9.802;2022-10-16T08:55:41;100945.41;;;15.11;86.92
3780;BME280;1905;52.482;9.802;2022-10-16T08:58:12;100942.94;;;15.08;87.22
3780;BME280;1905;52.482;9.802;2022-10-16T09:00:44;100942.75;;;15.11;86.72
3780;BME280;1905;52.482;9.802;2022-10-16T09:03:19;100951.16;;;15.19;86.88
3780;BME280;1905;52.482;9.802;2022-10-16T09:06:07;100957.06;;;15.24;86.75
3780;BME280;1905;52.482;9.802;2022-10-16T09:08:45;100967.28;;;15.16;86.68
3780;BME280;1905;52.482;9.802;2022-10-16T09:11:18;100967.72;;;15.24;85.66
3780;BME280;1905;52.482;9.802;2022-10-16T09:13:50;100965.63;;;15.29;86.22
3780;BME280;1905;52.482;9.802;2022-10-16T09:16:24;100960.88;;;15.34;85.71
3780;BME280;1905;52.482;9.802;2022-10-16T09:18:59;100969.72;;;15.34;86.04
3780;BME280;1905;52.482;9.802;2022-10-16T09:21:31;100971.34;;;15.37;85.31
3780;BME280;1905;52.482;9.802;2022-10-16T09:24:08;100979.16;;;15.40;85.89
3780;BME280;1905;52.482;9.802;2022-10-16T09:26:37;100983.53;;;15.41;84.81
3780;BME280;1905;52.482;9.802;2022-10-16T09:29:10;100983.03;;;15.50;84.99
3780;BME280;1905;52.482;9.802;2022-10-16T09:31:41;100986.44;;;15.52;84.86
3780;BME280;1905;52.482;9.802;2022-10-16T09:34:17;100991.78;;;15.52;84.97
3780;BME280;1905;52.482;9.802;2022-10-16T09:36:48;100988.56;;;15.61;84.72
3780;BME280;1905;52.482;9.802;2022-10-16T09:39:17;101003.84;;;15.58;84.87
3780;BME280;1905;52.482;9.802;2022-10-16T09:41:45;100999.22;;;15.61;84.66
3780;BME280;1905;52.482;9.802;2022-10-16T09:44:19;101006.69;;;15.70;84.41
3780;BME280;1905;52.482;9.802;2022-10-16T09:47:00;100995.06;;;15.71;84.37
3780;BME280;1905;52.482;9.802;2022-10-16T09:49:28;101002.09;;;15.72;83.79
3780;BME280;1905;52.482;9.802;2022-10-16T09:52:03;101011.72;;;15.75;84.28
3780;BME280;1905;52.482;9.802;2022-10-16T09:54:31;101018.66;;;15.77;83.53
3780;BME280;1905;52.482;9.802;2022-10-16T09:57:04;101020.22;;;15.81;83.27
3780;BME280;1905;52.482;9.802;2022-10-16T09:59:32;101026.00;;;15.88;83.33
3780;BME280;1905;52.482;9.802;2022-10-16T10:02:04;101024.78;;;15.93;82.63
3780;BME280;1905;52.482;9.802;2022-10-16T10:04:41;101024.81;;;16.07;82.43
3780;BME280;1905;52.482;9.802;2022-10-16T10:07:17;101024.44;;;16.14;81.92
3780;BME280;1905;52.482;9.802;2022-10-16T10:09:46;101031.28;;;16.18;82.53
3780;BME280;1905;52.482;9.802;2022-10-16T10:12:19;101022.34;;;16.19;82.12
3780;BME280;1905;52.482;9.802;2022-10-16T10:14:53;101021.97;;;16.25;81.98
3780;BME280;1905;52.482;9.802;2022-10-16T10:17:24;101027.97;;;16.28;81.83
3780;BME280;1905;52.482;9.802;2022-10-16T10:19:54;101033.78;;;16.35;81.50
3780;BME280;1905;52.482;9.802;2022-10-16T10:22:25;101036.63;;;16.46;80.70
3780;BME280;1905;52.482;9.802;2022-10-16T10:24:56;101036.25;;;16.52;80.67
3780;BME280;1905;52.482;9.802;2022-10-16T10:27:32;101034.00;;;16.60;80.76
3780;BME280;1905;52.482;9.802;2022-10-16T10:30:08;101037.25;;;16.65;80.85
3780;BME280;1905;52.482;9.802;2022-10-16T10:32:53;101042.56;;;16.65;80.94
3780;BME280;1905;52.482;9.802;2022-10-16T10:35:32;101042.56;;;16.65;80.41
3780;BME280;1905;52.482;9.802;2022-10-16T10:38:16;101047.91;;;16.65;80.00
3780;BME280;1905;52.482;9.802;2022-10-16T10:40:51;101062.00;;;16.67;79.04
3780;BME280;1905;52.482;9.802;2022-10-16T10:43:33;101049.59;;;16.66;79.24
3780;BME280;1905;52.482;9.802;2022-10-16T10:46:10;101058.56;;;16.65;79.47
3780;BME280;1905;52.482;9.802;2022-10-16T10:48:56;101060.25;;;16.66;79.54
3780;BME280;1905;52.482;9.802;2022-10-16T10:51:31;101057.03;;;16.61;78.71
3780;BME280;1905;52.482;9.802;2022-10-16T10:54:06;101053.44;;;16.62;78.86
3780;BME280;1905;52.482;9.802;2022-10-16T10:56:47;101055.91;;;16.65;79.24
3780;BME280;1905;52.482;9.802;2022-10-16T11:02:23;101047.31;;;16.74;78.75
3780;BME280;1905;52.482;9.802;2022-10-16T11:08:04;101052.44;;;16.77;76.50
3780;BME280;1905;52.482;9.802;2022-10-16T11:10:45;101054.06;;;16.80;76.50
3780;BME280;1905;52.482;9.802;2022-10-16T11:13:23;101059.50;;;16.78;77.24
3780;BME280;1905;52.482;9.802;2022-10-16T11:15:54;101058.56;;;16.79;76.24
3780;BME280;1905;52.482;9.802;2022-10-16T11:18:29;101062.94;;;16.80;77.11
3780;BME280;1905;52.482;9.802;2022-10-16T11:21:07;101060.94;;;16.84;77.18
3780;BME280;1905;52.482;9.802;2022-10-16T11:23:41;101070.75;;;16.83;77.33
3780;BME280;1905;52.482;9.802;2022-10-16T11:26:14;101068.06;;;16.83;77.62
3780;BME280;1905;52.482;9.802;2022-10-16T11:28:45;101068.06;;;16.83;76.71
3780;BME280;1905;52.482;9.802;2022-10-16T11:31:19;101073.03;;;16.89;76.67
3780;BME280;1905;52.482;9.802;2022-10-16T11:33:52;101073.97;;;16.88;76.93
3780;BME280;1905;52.482;9.802;2022-10-16T11:36:31;101068.81;;;16.85;75.91
3780;BME280;1905;52.482;9.802;2022-10-16T11:39:08;101065.97;;;16.88;74.97
3780;BME280;1905;52.482;9.802;2022-10-16T11:41:42;101068.38;;;16.93;75.25
3780;BME280;1905;52.482;9.802;2022-10-16T11:44:36;101077.56;;;17.01;76.27
3780;BME280;1905;52.482;9.802;2022-10-16T11:47:14;101082.91;;;17.01;75.73
3780;BME280;1905;52.482;9.802;2022-10-16T11:50:17;101082.06;;;17.01;75.77
3780;BME280;1905;52.482;9.802;2022-10-16T11:52:53;101085.31;;;17.06;75.67
3780;BME280;1905;52.482;9.802;2022-10-16T11:55:27;101077.19;;;17.07;76.41
3780;BME280;1905;52.482;9.802;2022-10-16T11:58:01;101081.28;;;17.13;76.67
3780;BME280;1905;52.482;9.802;2022-10-16T12:00:33;101092.13;;;17.24;76.37
3780;BME280;1905;52.482;9.802;2022-10-16T12:03:12;101097.38;;;17.25;76.12
3780;BME280;1905;52.482;9.802;2022-10-16T12:05:55;101099.06;;;17.26;76.68
3780;BME280;1905;52.482;9.802;2022-10-16T12:08:30;101098.50;;;17.21;76.87
3780;BME280;1905;52.482;9.802;2022-10-16T12:11:09;101098.50;;;17.21;77.23
3780;BME280;1905;52.482;9.802;2022-10-16T12:13:40;101112.59;;;17.23;76.27
3780;BME280;1905;52.482;9.802;2022-10-16T12:16:21;101106.81;;;17.31;76.75
3780;BME280;1905;52.482;9.802;2022-10-16T12:19:03;101106.19;;;17.40;76.88
3780;BME280;1905;52.482;9.802;2022-10-16T12:21:41;101105.91;;;17.45;76.01
3780;BME280;1905;52.482;9.802;2022-10-16T12:24:21;101106.66;;;17.47;76.49
3780;BME280;1905;52.482;9.802;2022-10-16T12:26:52;101107.13;;;17.53;75.83
3780;BME280;1905;52.482;9.802;2022-10-16T12:29:32;101106.41;;;17.64;75.78
3780;BME280;1905;52.482;9.802;2022-10-16T12:32:02;101099.06;;;17.67;74.41
3780;BME280;1905;52.482;9.802;2022-10-16T12:34:36;101109.56;;;17.70;74.58
3780;BME280;1905;52.482;9.802;2022-10-16T12:37:11;101107.19;;;17.66;74.73
3780;BME280;1905;52.482;9.802;2022-10-16T12:39:42;101112.41;;;17.67;75.17
3780;BME280;1905;52.482;9.802;2022-10-16T12:42:31;101115.00;;;17.69;75.33
3780;BME280;1905;52.482;9.802;2022-10-16T12:45:00;101116.69;;;17.70;74.15
3780;BME280;1905;52.482;9.802;2022-10-16T12:47:48;101116.31;;;17.76;74.96
3780;BME280;1905;52.482;9.802;2022-10-16T12:50:38;101123.91;;;17.82;74.25
3780;BME280;1905;52.482;9.802;2022-10-16T12:53:18;101127.34;;;17.84;73.68
3780;BME280;1905;52.482;9.802;2022-10-16T12:55:55;101122.00;;;17.84;74.59
3780;BME280;1905;52.482;9.802;2022-10-16T12:58:59;101127.13;;;17.87;75.11
3780;BME280;1905;52.482;9.802;2022-10-16T13:01:39;101132.47;;;17.87;75.18
3780;BME280;1905;52.482;9.802;2022-10-16T13:04:29;101132.47;;;17.87;74.91
3780;BME280;1905;52.482;9.802;2022-10-16T13:07:18;101136.88;;;17.88;75.02
3780;BME280;1905;52.482;9.802;2022-10-16T13:10:00;101149.06;;;17.92;75.87
3780;BME280;1905;52.482;9.802;2022-10-16T13:12:56;101144.66;;;17.91;75.84
3780;BME280;1905;52.482;9.802;2022-10-16T13:15:46;101149.38;;;17.88;75.47
3780;BME280;1905;52.482;9.802;2022-10-16T13:18:22;101150.00;;;17.91;75.55
3780;BME280;1905;52.482;9.802;2022-10-16T13:21:02;101157.81;;;17.94;75.31
3780;BME280;1905;52.482;9.802;2022-10-16T13:23:40;101157.06;;;17.92;76.61
3780;BME280;1905;52.482;9.802;2022-10-16T13:26:19;101160.94;;;17.88;76.19
3780;BME280;1905;52.482;9.802;2022-10-16T13:28:51;101158.81;;;17.93;76.44
3780;BME280;1905;52.482;9.802;2022-10-16T13:31:21;101165.09;;;17.92;75.04
3780;BME280;1905;52.482;9.802;2022-10-16T13:33:52;101159.66;;;17.94;75.92
3780;BME280;1905;52.482;9.802;2022-10-16T13:36:23;101167.16;;;18.01;75.81
3780;BME280;1905;52.482;9.802;2022-10-16T13:39:00;101172.41;;;18.03;76.28
3780;BME280;1905;52.482;9.802;2022-10-16T13:41:31;101169.66;;;18.04;74.16
3780;BME280;1905;52.482;9.802;2022-10-16T13:44:00;101164.84;;;18.09;73.29
3780;BME280;1905;52.482;9.802;2022-10-16T13:46:28;101171.69;;;18.13;75.83
3780;BME280;1905;52.482;9.802;2022-10-16T13:49:02;101170.53;;;18.17;75.61